sensor_id;sensor_type;location;lat;lon;timestamp;P1;durP1;ratioP1;P2;durP2;ratioP2
57659;SDS011;43485;45.680;15.702;2024-02-16T00:01:06;3.25;;;1.48;;
57659;SDS011;43485;45.680;15.702;2024-02-16T00:03:32;5.78;;;2.67;;
57659;SDS011;43485;45.680;15.702;2024-02-16T00:05:59;6.07;;;3.95;;
57659;SDS011;43485;45.680;15.702;2024-02-16T00:08:25;3.97;;;2.83;;
57659;SDS011;43485;45.680;15.702;2024-02-16T00:10:51;5.53;;;2.47;;
57659;SDS011;43485;45.680;15.702;2024-02-16T00:13:17;2.92;;;1.33;;
57659;SDS011;43485;45.680;15.702;2024-02-16T00:15:43;5.68;;;2.45;;
57659;SDS011;43485;45.680;15.702;2024-02-16T00:18:09;5.55;;;2.05;;
57659;SDS011;43485;45.680;15.702;2024-02-16T00:20:36;5.63;;;2.25;;
57659;SDS011;43485;45.680;15.702;2024-02-16T00:25:29;4.18;;;1.98;;
57659;SDS011;43485;45.680;15.702;2024-02-16T00:27:55;5.90;;;2.33;;
57659;SDS011;43485;45.680;15.702;2024-02-16T00:30:21;2.97;;;1.73;;
57659;SDS011;43485;45.680;15.702;2024-02-16T00:32:47;4.13;;;1.67;;
57659;SDS011;43485;45.680;15.702;2024-02-16T00:35:17;2.92;;;2.15;;
57659;SDS011;43485;45.680;15.702;2024-02-16T00:37:44;1.83;;;1.45;;
57659;SDS011;43485;45.680;15.702;2024-02-16T00:40:29;6.35;;;2.63;;
57659;SDS011;43485;45.680;15.702;2024-02-16T00:42:55;1.90;;;1.23;;
57659;SDS011;43485;45.680;15.702;2024-02-16T00:45:21;7.07;;;4.30;;
57659;SDS011;43485;45.680;15.702;2024-02-16T00:50:17;2.45;;;1.67;;
57659;SDS011;43485;45.680;15.702;2024-02-16T00:52:43;2.90;;;1.75;;
57659;SDS011;43485;45.680;15.702;2024-02-16T00:55:10;2.08;;;1.30;;
57659;SDS011;43485;45.680;15.702;2024-02-16T00:57:38;5.82;;;1.95;;
57659;SDS011;43485;45.680;15.702;2024-02-16T01:00:04;5.00;;;2.22;;
57659;SDS011;43485;45.680;15.702;2024-02-16T01:02:31;5.28;;;2.78;;
57659;SDS011;43485;45.680;15.702;2024-02-16T01:04:58;14.93;;;3.40;;
57659;SDS011;43485;45.680;15.702;2024-02-16T01:07:27;4.38;;;3.10;;
57659;SDS011;43485;45.680;15.702;2024-02-16T01:09:54;3.15;;;2.00;;
57659;SDS011;43485;45.680;15.702;2024-02-16T01:12:21;4.25;;;1.95;;
57659;SDS011;43485;45.680;15.702;2024-02-16T01:14:47;4.20;;;1.83;;
57659;SDS011;43485;45.680;15.702;2024-02-16T01:17:13;3.33;;;2.08;;
57659;SDS011;43485;45.680;15.702;2024-02-16T01:19:40;3.67;;;2.28;;
57659;SDS011;43485;45.680;15.702;2024-02-16T01:22:06;6.47;;;2.72;;
57659;SDS011;43485;45.680;15.702;2024-02-16T01:24:32;10.10;;;3.55;;
57659;SDS011;43485;45.680;15.702;2024-02-16T01:26:58;3.00;;;1.85;;
57659;SDS011;43485;45.680;15.702;2024-02-16T01:31:50;5.60;;;2.22;;
57659;SDS011;43485;45.680;15.702;2024-02-16T01:34:16;2.20;;;0.95;;
57659;SDS011;43485;45.680;15.702;2024-02-16T01:36:42;2.50;;;1.45;;
57659;SDS011;43485;45.680;15.702;2024-02-16T01:39:08;2.85;;;1.50;;
57659;SDS011;43485;45.680;15.702;2024-02-16T01:41:34;2.05;;;1.67;;
57659;SDS011;43485;45.680;15.702;2024-02-16T01:44:04;2.30;;;1.33;;
57659;SDS011;43485;45.680;15.702;2024-02-16T01:46:31;4.72;;;2.08;;
57659;SDS011;43485;45.680;15.702;2024-02-16T01:48:59;3.45;;;1.52;;
57659;SDS011;43485;45.680;15.702;2024-02-16T01:51:26;1.23;;;0.82;;
57659;SDS011;43485;45.680;15.702;2024-02-16T01:53:52;2.58;;;1.60;;
57659;SDS011;43485;45.680;15.702;2024-02-16T01:56:20;2.63;;;1.48;;
57659;SDS011;43485;45.680;15.702;2024-02-16T02:01:13;1.75;;;1.00;;
57659;SDS011;43485;45.680;15.702;2024-02-16T02:03:39;4.35;;;2.70;;
57659;SDS011;43485;45.680;15.702;2024-02-16T02:06:05;5.72;;;3.20;;
57659;SDS011;43485;45.680;15.702;2024-02-16T02:08:31;3.58;;;2.25;;
57659;SDS011;43485;45.680;15.702;2024-02-16T02:10:57;2.60;;;1.27;;
57659;SDS011;43485;45.680;15.702;2024-02-16T02:13:23;3.08;;;1.52;;
57659;SDS011;43485;45.680;15.702;2024-02-16T02:15:49;4.43;;;1.70;;
57659;SDS011;43485;45.680;15.702;2024-02-16T02:18:15;2.30;;;1.00;;
57659;SDS011;43485;45.680;15.702;2024-02-16T02:20:41;4.05;;;1.30;;
57659;SDS011;43485;45.680;15.702;2024-02-16T02:23:07;2.97;;;1.92;;
57659;SDS011;43485;45.680;15.702;2024-02-16T02:25:33;3.33;;;2.13;;
57659;SDS011;43485;45.680;15.702;2024-02-16T02:28:00;2.65;;;1.60;;
57659;SDS011;43485;45.680;15.702;2024-02-16T02:30:28;2.95;;;1.85;;
57659;SDS011;43485;45.680;15.702;2024-02-16T02:35:20;1.85;;;1.17;;
57659;SDS011;43485;45.680;15.702;2024-02-16T02:37:47;2.55;;;1.90;;
57659;SDS011;43485;45.680;15.702;2024-02-16T02:42:39;8.85;;;2.80;;
57659;SDS011;43485;45.680;15.702;2024-02-16T02:45:05;2.33;;;1.23;;
57659;SDS011;43485;45.680;15.702;2024-02-16T02:47:32;3.97;;;2.08;;
57659;SDS011;43485;45.680;15.702;2024-02-16T02:49:58;2.88;;;1.77;;
57659;SDS011;43485;45.680;15.702;2024-02-16T02:52:24;2.33;;;1.20;;
57659;SDS011;43485;45.680;15.702;2024-02-16T02:54:51;1.65;;;1.02;;
57659;SDS011;43485;45.680;15.702;2024-02-16T02:57:17;3.80;;;2.30;;
57659;SDS011;43485;45.680;15.702;2024-02-16T02:59:43;1.52;;;0.77;;
57659;SDS011;43485;45.680;15.702;2024-02-16T03:02:10;1.55;;;1.02;;
57659;SDS011;43485;45.680;15.702;2024-02-16T03:04:36;2.28;;;1.90;;
57659;SDS011;43485;45.680;15.702;2024-02-16T03:07:02;2.38;;;1.40;;
57659;SDS011;43485;45.680;15.702;2024-02-16T03:09:28;3.78;;;2.03;;
57659;SDS011;43485;45.680;15.702;2024-02-16T03:11:54;5.10;;;2.47;;
57659;SDS011;43485;45.680;15.702;2024-02-16T03:14:20;3.42;;;2.13;;
57659;SDS011;43485;45.680;15.702;2024-02-16T03:16:46;3.10;;;2.03;;
57659;SDS011;43485;45.680;15.702;2024-02-16T03:19:13;2.67;;;1.75;;
57659;SDS011;43485;45.680;15.702;2024-02-16T03:24:05;0.98;;;0.80;;
57659;SDS011;43485;45.680;15.702;2024-02-16T03:26:31;4.32;;;2.42;;
57659;SDS011;43485;45.680;15.702;2024-02-16T03:28:57;6.30;;;3.45;;
57659;SDS011;43485;45.680;15.702;2024-02-16T03:31:24;3.33;;;1.65;;
57659;SDS011;43485;45.680;15.702;2024-02-16T03:36:16;5.50;;;2.38;;
57659;SDS011;43485;45.680;15.702;2024-02-16T03:38:44;3.53;;;2.63;;
57659;SDS011;43485;45.680;15.702;2024-02-16T03:43:56;2.42;;;1.35;;
57659;SDS011;43485;45.680;15.702;2024-02-16T03:46:23;3.08;;;1.45;;
57659;SDS011;43485;45.680;15.702;2024-02-16T03:48:49;2.92;;;1.58;;
57659;SDS011;43485;45.680;15.702;2024-02-16T03:51:15;2.97;;;1.77;;
57659;SDS011;43485;45.680;15.702;2024-02-16T03:53:41;15.27;;;3.80;;
57659;SDS011;43485;45.680;15.702;2024-02-16T03:56:09;5.85;;;2.55;;
57659;SDS011;43485;45.680;15.702;2024-02-16T03:58:37;6.43;;;1.65;;
57659;SDS011;43485;45.680;15.702;2024-02-16T04:03:32;2.03;;;1.25;;
57659;SDS011;43485;45.680;15.702;2024-02-16T04:05:58;2.38;;;1.10;;
57659;SDS011;43485;45.680;15.702;2024-02-16T04:08:24;5.57;;;1.27;;
57659;SDS011;43485;45.680;15.702;2024-02-16T04:10:50;2.75;;;1.20;;
57659;SDS011;43485;45.680;15.702;2024-02-16T04:13:16;1.65;;;0.90;;
57659;SDS011;43485;45.680;15.702;2024-02-16T04:15:43;1.70;;;0.93;;
57659;SDS011;43485;45.680;15.702;2024-02-16T04:18:08;2.15;;;1.13;;
57659;SDS011;43485;45.680;15.702;2024-02-16T04:20:35;3.38;;;1.15;;
57659;SDS011;43485;45.680;15.702;2024-02-16T04:23:03;2.17;;;1.27;;
57659;SDS011;43485;45.680;15.702;2024-02-16T04:25:29;0.90;;;0.40;;
57659;SDS011;43485;45.680;15.702;2024-02-16T04:27:55;2.05;;;1.15;;
57659;SDS011;43485;45.680;15.702;2024-02-16T04:30:21;4.22;;;1.60;;
57659;SDS011;43485;45.680;15.702;2024-02-16T04:32:48;1.48;;;0.82;;
57659;SDS011;43485;45.680;15.702;2024-02-16T04:35:14;1.63;;;0.95;;
57659;SDS011;43485;45.680;15.702;2024-02-16T04:37:40;1.90;;;1.45;;
57659;SDS011;43485;45.680;15.702;2024-02-16T04:40:06;3.03;;;1.65;;
57659;SDS011;43485;45.680;15.702;2024-02-16T04:42:33;1.85;;;0.85;;
57659;SDS011;43485;45.680;15.702;2024-02-16T04:44:59;2.45;;;1.27;;
57659;SDS011;43485;45.680;15.702;2024-02-16T04:47:26;2.58;;;1.27;;
57659;SDS011;43485;45.680;15.702;2024-02-16T04:49:52;2.45;;;1.15;;
57659;SDS011;43485;45.680;15.702;2024-02-16T04:52:18;1.60;;;1.15;;
57659;SDS011;43485;45.680;15.702;2024-02-16T04:54:44;1.00;;;0.60;;
57659;SDS011;43485;45.680;15.702;2024-02-16T04:57:10;1.73;;;1.00;;
57659;SDS011;43485;45.680;15.702;2024-02-16T04:59:37;1.70;;;0.95;;
57659;SDS011;43485;45.680;15.702;2024-02-16T05:02:03;2.25;;;1.25;;
57659;SDS011;43485;45.680;15.702;2024-02-16T05:04:29;2.15;;;1.08;;
57659;SDS011;43485;45.680;15.702;2024-02-16T05:06:55;2.25;;;1.52;;
57659;SDS011;43485;45.680;15.702;2024-02-16T05:09:22;4.03;;;2.15;;
57659;SDS011;43485;45.680;15.702;2024-02-16T05:11:51;2.95;;;1.73;;
57659;SDS011;43485;45.680;15.702;2024-02-16T05:14:17;2.67;;;1.90;;
57659;SDS011;43485;45.680;15.702;2024-02-16T05:16:43;4.80;;;1.80;;
57659;SDS011;43485;45.680;15.702;2024-02-16T05:19:10;5.50;;;3.45;;
57659;SDS011;43485;45.680;15.702;2024-02-16T05:21:36;5.10;;;2.72;;
57659;SDS011;43485;45.680;15.702;2024-02-16T05:24:02;6.93;;;2.80;;
57659;SDS011;43485;45.680;15.702;2024-02-16T05:26:28;5.53;;;3.17;;
57659;SDS011;43485;45.680;15.702;2024-02-16T05:28:54;8.13;;;3.10;;
57659;SDS011;43485;45.680;15.702;2024-02-16T05:31:20;3.45;;;2.38;;
57659;SDS011;43485;45.680;15.702;2024-02-16T05:33:47;3.72;;;2.05;;
57659;SDS011;43485;45.680;15.702;2024-02-16T05:39:01;3.17;;;1.77;;
57659;SDS011;43485;45.680;15.702;2024-02-16T05:41:45;7.35;;;3.50;;
57659;SDS011;43485;45.680;15.702;2024-02-16T05:44:11;2.03;;;1.58;;
57659;SDS011;43485;45.680;15.702;2024-02-16T05:46:38;1.05;;;0.68;;
57659;SDS011;43485;45.680;15.702;2024-02-16T05:49:04;4.43;;;1.98;;
57659;SDS011;43485;45.680;15.702;2024-02-16T05:54:33;3.50;;;1.73;;
57659;SDS011;43485;45.680;15.702;2024-02-16T05:56:59;4.88;;;2.33;;
57659;SDS011;43485;45.680;15.702;2024-02-16T05:59:26;1.95;;;1.38;;
57659;SDS011;43485;45.680;15.702;2024-02-16T06:01:52;5.82;;;2.50;;
57659;SDS011;43485;45.680;15.702;2024-02-16T06:04:18;1.08;;;0.68;;
57659;SDS011;43485;45.680;15.702;2024-02-16T06:06:44;0.88;;;0.60;;
57659;SDS011;43485;45.680;15.702;2024-02-16T06:11:37;1.23;;;0.77;;
57659;SDS011;43485;45.680;15.702;2024-02-16T06:14:04;0.95;;;0.55;;
57659;SDS011;43485;45.680;15.702;2024-02-16T06:16:30;2.05;;;1.30;;
57659;SDS011;43485;45.680;15.702;2024-02-16T06:21:22;1.10;;;0.90;;
57659;SDS011;43485;45.680;15.702;2024-02-16T06:23:48;2.17;;;1.10;;
57659;SDS011;43485;45.680;15.702;2024-02-16T06:26:14;2.90;;;1.65;;
57659;SDS011;43485;45.680;15.702;2024-02-16T06:28:40;11.85;;;2.58;;
57659;SDS011;43485;45.680;15.702;2024-02-16T06:31:06;1.40;;;0.98;;
57659;SDS011;43485;45.680;15.702;2024-02-16T06:33:33;4.03;;;1.45;;
57659;SDS011;43485;45.680;15.702;2024-02-16T06:35:58;2.65;;;1.80;;
57659;SDS011;43485;45.680;15.702;2024-02-16T06:38:24;3.20;;;1.83;;
57659;SDS011;43485;45.680;15.702;2024-02-16T06:40:50;2.95;;;2.00;;
57659;SDS011;43485;45.680;15.702;2024-02-16T06:43:16;5.47;;;3.13;;
57659;SDS011;43485;45.680;15.702;2024-02-16T06:45:42;3.55;;;1.42;;
57659;SDS011;43485;45.680;15.702;2024-02-16T06:48:09;3.10;;;2.00;;
57659;SDS011;43485;45.680;15.702;2024-02-16T06:50:35;3.20;;;1.92;;
57659;SDS011;43485;45.680;15.702;2024-02-16T06:53:01;2.78;;;1.45;;
57659;SDS011;43485;45.680;15.702;2024-02-16T06:55:27;3.55;;;2.28;;
57659;SDS011;43485;45.680;15.702;2024-02-16T06:57:53;2.70;;;1.42;;
57659;SDS011;43485;45.680;15.702;2024-02-16T07:00:19;3.42;;;1.48;;
57659;SDS011;43485;45.680;15.702;2024-02-16T07:02:45;5.82;;;2.55;;
57659;SDS011;43485;45.680;15.702;2024-02-16T07:05:11;7.32;;;4.22;;
57659;SDS011;43485;45.680;15.702;2024-02-16T07:07:38;15.05;;;4.97;;
57659;SDS011;43485;45.680;15.702;2024-02-16T07:10:04;10.18;;;4.88;;
57659;SDS011;43485;45.680;15.702;2024-02-16T07:12:31;14.68;;;5.50;;
57659;SDS011;43485;45.680;15.702;2024-02-16T07:14:58;9.88;;;4.32;;
57659;SDS011;43485;45.680;15.702;2024-02-16T07:17:24;9.13;;;4.40;;
57659;SDS011;43485;45.680;15.702;2024-02-16T07:19:50;9.77;;;6.35;;
57659;SDS011;43485;45.680;15.702;2024-02-16T07:22:16;13.60;;;7.18;;
57659;SDS011;43485;45.680;15.702;2024-02-16T07:24:42;8.32;;;5.75;;
57659;SDS011;43485;45.680;15.702;2024-02-16T07:27:09;6.32;;;4.78;;
57659;SDS011;43485;45.680;15.702;2024-02-16T07:29:35;6.63;;;3.60;;
57659;SDS011;43485;45.680;15.702;2024-02-16T07:32:04;10.18;;;6.28;;
57659;SDS011;43485;45.680;15.702;2024-02-16T07:36:56;2.95;;;1.92;;
57659;SDS011;43485;45.680;15.702;2024-02-16T07:39:22;4.15;;;2.70;;
57659;SDS011;43485;45.680;15.702;2024-02-16T07:41:50;3.45;;;2.08;;
57659;SDS011;43485;45.680;15.702;2024-02-16T07:44:16;2.80;;;1.42;;
57659;SDS011;43485;45.680;15.702;2024-02-16T07:46:42;5.28;;;2.45;;
57659;SDS011;43485;45.680;15.702;2024-02-16T07:49:11;4.13;;;2.65;;
57659;SDS011;43485;45.680;15.702;2024-02-16T07:51:37;3.83;;;2.22;;
57659;SDS011;43485;45.680;15.702;2024-02-16T07:54:03;4.85;;;2.22;;
57659;SDS011;43485;45.680;15.702;2024-02-16T07:56:31;10.70;;;3.92;;
57659;SDS011;43485;45.680;15.702;2024-02-16T07:58:57;2.05;;;1.30;;
57659;SDS011;43485;45.680;15.702;2024-02-16T08:01:23;3.90;;;2.40;;
57659;SDS011;43485;45.680;15.702;2024-02-16T08:03:49;8.35;;;2.75;;
57659;SDS011;43485;45.680;15.702;2024-02-16T08:06:16;4.03;;;2.08;;
57659;SDS011;43485;45.680;15.702;2024-02-16T08:08:46;4.15;;;1.98;;
57659;SDS011;43485;45.680;15.702;2024-02-16T08:11:12;2.55;;;1.65;;
57659;SDS011;43485;45.680;15.702;2024-02-16T08:13:38;4.25;;;2.15;;
57659;SDS011;43485;45.680;15.702;2024-02-16T08:16:04;5.95;;;1.90;;
57659;SDS011;43485;45.680;15.702;2024-02-16T08:18:32;4.43;;;2.05;;
57659;SDS011;43485;45.680;15.702;2024-02-16T08:20:59;6.20;;;3.72;;
57659;SDS011;43485;45.680;15.702;2024-02-16T08:25:51;5.20;;;2.45;;
57659;SDS011;43485;45.680;15.702;2024-02-16T08:28:17;8.40;;;3.53;;
57659;SDS011;43485;45.680;15.702;2024-02-16T08:30:43;5.20;;;2.33;;
57659;SDS011;43485;45.680;15.702;2024-02-16T08:33:10;3.08;;;2.17;;
57659;SDS011;43485;45.680;15.702;2024-02-16T08:35:56;1.52;;;1.25;;
57659;SDS011;43485;45.680;15.702;2024-02-16T08:38:22;5.38;;;2.40;;
57659;SDS011;43485;45.680;15.702;2024-02-16T08:40:48;3.95;;;1.42;;
57659;SDS011;43485;45.680;15.702;2024-02-16T08:43:17;3.50;;;2.47;;
57659;SDS011;43485;45.680;15.702;2024-02-16T08:45:43;3.17;;;2.28;;
57659;SDS011;43485;45.680;15.702;2024-02-16T08:48:09;3.47;;;2.05;;
57659;SDS011;43485;45.680;15.702;2024-02-16T08:50:35;1.40;;;0.90;;
57659;SDS011;43485;45.680;15.702;2024-02-16T08:53:01;2.42;;;1.63;;
57659;SDS011;43485;45.680;15.702;2024-02-16T08:55:27;1.55;;;0.85;;
57659;SDS011;43485;45.680;15.702;2024-02-16T08:57:53;2.58;;;2.17;;
57659;SDS011;43485;45.680;15.702;2024-02-16T09:00:19;3.50;;;2.15;;
57659;SDS011;43485;45.680;15.702;2024-02-16T09:05:11;8.52;;;2.15;;
57659;SDS011;43485;45.680;15.702;2024-02-16T09:07:37;3.17;;;2.17;;
57659;SDS011;43485;45.680;15.702;2024-02-16T09:10:05;3.22;;;2.08;;
57659;SDS011;43485;45.680;15.702;2024-02-16T09:12:33;5.80;;;4.03;;
57659;SDS011;43485;45.680;15.702;2024-02-16T09:14:59;1.63;;;0.93;;
57659;SDS011;43485;45.680;15.702;2024-02-16T09:17:24;2.30;;;1.15;;
57659;SDS011;43485;45.680;15.702;2024-02-16T09:19:51;1.45;;;1.05;;
57659;SDS011;43485;45.680;15.702;2024-02-16T09:22:17;2.58;;;1.38;;
57659;SDS011;43485;45.680;15.702;2024-02-16T09:24:43;2.80;;;2.28;;
57659;SDS011;43485;45.680;15.702;2024-02-16T09:27:12;2.83;;;1.73;;
57659;SDS011;43485;45.680;15.702;2024-02-16T09:32:05;2.45;;;1.85;;
57659;SDS011;43485;45.680;15.702;2024-02-16T09:34:31;3.20;;;1.98;;
57659;SDS011;43485;45.680;15.702;2024-02-16T09:39:23;6.32;;;1.73;;
57659;SDS011;43485;45.680;15.702;2024-02-16T09:41:50;1.95;;;1.48;;
57659;SDS011;43485;45.680;15.702;2024-02-16T09:44:20;2.42;;;1.70;;
57659;SDS011;43485;45.680;15.702;2024-02-16T09:46:47;1.45;;;1.27;;
57659;SDS011;43485;45.680;15.702;2024-02-16T09:49:13;2.40;;;1.52;;
57659;SDS011;43485;45.680;15.702;2024-02-16T09:54:05;1.77;;;1.15;;
57659;SDS011;43485;45.680;15.702;2024-02-16T09:56:32;2.28;;;1.58;;
57659;SDS011;43485;45.680;15.702;2024-02-16T09:58:58;2.78;;;1.92;;
57659;SDS011;43485;45.680;15.702;2024-02-16T10:01:25;1.38;;;0.80;;
57659;SDS011;43485;45.680;15.702;2024-02-16T10:06:17;1.75;;;1.02;;
57659;SDS011;43485;45.680;15.702;2024-02-16T10:11:31;3.17;;;1.55;;
57659;SDS011;43485;45.680;15.702;2024-02-16T10:16:45;8.85;;;2.47;;
57659;SDS011;43485;45.680;15.702;2024-02-16T10:19:12;4.72;;;3.00;;
57659;SDS011;43485;45.680;15.702;2024-02-16T10:21:39;2.25;;;1.52;;
57659;SDS011;43485;45.680;15.702;2024-02-16T10:24:06;2.88;;;1.40;;
57659;SDS011;43485;45.680;15.702;2024-02-16T10:26:34;2.25;;;1.50;;
57659;SDS011;43485;45.680;15.702;2024-02-16T10:29:05;1.30;;;1.17;;
57659;SDS011;43485;45.680;15.702;2024-02-16T10:31:34;4.50;;;2.72;;
57659;SDS011;43485;45.680;15.702;2024-02-16T10:36:31;2.55;;;2.08;;
57659;SDS011;43485;45.680;15.702;2024-02-16T10:39:16;3.33;;;2.08;;
57659;SDS011;43485;45.680;15.702;2024-02-16T10:41:44;1.27;;;0.90;;
57659;SDS011;43485;45.680;15.702;2024-02-16T10:44:10;3.72;;;1.88;;
57659;SDS011;43485;45.680;15.702;2024-02-16T10:46:37;3.42;;;2.28;;
57659;SDS011;43485;45.680;15.702;2024-02-16T10:49:04;1.50;;;1.15;;
57659;SDS011;43485;45.680;15.702;2024-02-16T10:51:49;2.05;;;1.30;;
57659;SDS011;43485;45.680;15.702;2024-02-16T10:54:37;3.10;;;1.45;;
57659;SDS011;43485;45.680;15.702;2024-02-16T10:57:08;1.15;;;0.98;;
57659;SDS011;43485;45.680;15.702;2024-02-16T10:59:41;3.38;;;1.48;;
57659;SDS011;43485;45.680;15.702;2024-02-16T11:02:09;3.92;;;0.70;;
57659;SDS011;43485;45.680;15.702;2024-02-16T11:04:39;1.83;;;1.35;;
57659;SDS011;43485;45.680;15.702;2024-02-16T11:07:12;2.13;;;1.52;;
57659;SDS011;43485;45.680;15.702;2024-02-16T11:09:42;2.07;;;1.57;;
57659;SDS011;43485;45.680;15.702;2024-02-16T11:12:11;2.10;;;1.10;;
57659;SDS011;43485;45.680;15.702;2024-02-16T11:14:40;1.40;;;0.82;;
57659;SDS011;43485;45.680;15.702;2024-02-16T11:19:54;2.00;;;0.95;;
57659;SDS011;43485;45.680;15.702;2024-02-16T11:22:20;1.35;;;0.80;;
57659;SDS011;43485;45.680;15.702;2024-02-16T11:24:48;2.65;;;1.63;;
57659;SDS011;43485;45.680;15.702;2024-02-16T11:27:16;0.85;;;0.43;;
57659;SDS011;43485;45.680;15.702;2024-02-16T11:29:47;2.63;;;1.45;;
57659;SDS011;43485;45.680;15.702;2024-02-16T11:32:14;0.47;;;0.38;;
57659;SDS011;43485;45.680;15.702;2024-02-16T11:37:06;0.70;;;0.50;;
57659;SDS011;43485;45.680;15.702;2024-02-16T11:39:32;2.53;;;1.15;;
57659;SDS011;43485;45.680;15.702;2024-02-16T11:47:32;2.20;;;1.55;;
57659;SDS011;43485;45.680;15.702;2024-02-16T11:52:43;1.27;;;0.75;;
57659;SDS011;43485;45.680;15.702;2024-02-16T11:57:53;3.78;;;1.75;;
57659;SDS011;43485;45.680;15.702;2024-02-16T12:00:21;1.50;;;1.02;;
57659;SDS011;43485;45.680;15.702;2024-02-16T12:02:58;4.85;;;1.08;;
57659;SDS011;43485;45.680;15.702;2024-02-16T12:05:25;2.50;;;1.80;;
57659;SDS011;43485;45.680;15.702;2024-02-16T12:07:52;2.88;;;1.20;;
57659;SDS011;43485;45.680;15.702;2024-02-16T12:12:43;2.75;;;2.25;;
57659;SDS011;43485;45.680;15.702;2024-02-16T12:17:36;1.73;;;1.20;;
57659;SDS011;43485;45.680;15.702;2024-02-16T12:20:02;1.90;;;1.08;;
57659;SDS011;43485;45.680;15.702;2024-02-16T12:22:37;2.15;;;1.75;;
57659;SDS011;43485;45.680;15.702;2024-02-16T12:25:03;2.35;;;0.90;;
57659;SDS011;43485;45.680;15.702;2024-02-16T12:27:30;1.15;;;0.47;;
57659;SDS011;43485;45.680;15.702;2024-02-16T12:29:56;1.75;;;1.15;;
57659;SDS011;43485;45.680;15.702;2024-02-16T12:32:22;3.50;;;0.82;;
57659;SDS011;43485;45.680;15.702;2024-02-16T12:34:48;1.30;;;0.85;;
57659;SDS011;43485;45.680;15.702;2024-02-16T12:37:14;1.48;;;0.60;;
57659;SDS011;43485;45.680;15.702;2024-02-16T12:39:41;1.02;;;0.90;;
57659;SDS011;43485;45.680;15.702;2024-02-16T12:42:07;2.17;;;1.17;;
57659;SDS011;43485;45.680;15.702;2024-02-16T12:44:33;1.05;;;0.77;;
57659;SDS011;43485;45.680;15.702;2024-02-16T12:46:59;0.77;;;0.73;;
57659;SDS011;43485;45.680;15.702;2024-02-16T12:49:25;2.45;;;1.02;;
57659;SDS011;43485;45.680;15.702;2024-02-16T12:51:51;9.43;;;1.52;;
57659;SDS011;43485;45.680;15.702;2024-02-16T12:54:17;0.30;;;0.30;;
57659;SDS011;43485;45.680;15.702;2024-02-16T12:56:47;0.20;;;0.20;;
57659;SDS011;43485;45.680;15.702;2024-02-16T12:59:14;12.48;;;0.93;;
57659;SDS011;43485;45.680;15.702;2024-02-16T13:01:41;2.53;;;0.90;;
57659;SDS011;43485;45.680;15.702;2024-02-16T13:04:08;1.88;;;1.00;;
57659;SDS011;43485;45.680;15.702;2024-02-16T13:06:34;2.05;;;1.33;;
57659;SDS011;43485;45.680;15.702;2024-02-16T13:09:01;1.40;;;0.93;;
57659;SDS011;43485;45.680;15.702;2024-02-16T13:11:27;0.82;;;0.77;;
57659;SDS011;43485;45.680;15.702;2024-02-16T13:13:54;0.98;;;0.63;;
57659;SDS011;43485;45.680;15.702;2024-02-16T13:16:20;1.55;;;1.45;;
57659;SDS011;43485;45.680;15.702;2024-02-16T13:18:46;2.10;;;1.48;;
57659;SDS011;43485;45.680;15.702;2024-02-16T13:21:12;0.73;;;0.57;;
57659;SDS011;43485;45.680;15.702;2024-02-16T13:23:39;1.88;;;1.25;;
57659;SDS011;43485;45.680;15.702;2024-02-16T13:26:05;1.67;;;1.10;;
57659;SDS011;43485;45.680;15.702;2024-02-16T13:28:31;1.35;;;1.10;;
57659;SDS011;43485;45.680;15.702;2024-02-16T13:30:58;2.80;;;0.88;;
57659;SDS011;43485;45.680;15.702;2024-02-16T13:33:24;2.13;;;0.65;;
57659;SDS011;43485;45.680;15.702;2024-02-16T13:35:50;1.42;;;1.00;;
57659;SDS011;43485;45.680;15.702;2024-02-16T13:38:16;0.82;;;0.70;;
57659;SDS011;43485;45.680;15.702;2024-02-16T13:40:42;2.00;;;1.23;;
57659;SDS011;43485;45.680;15.702;2024-02-16T13:43:08;0.68;;;0.50;;
57659;SDS011;43485;45.680;15.702;2024-02-16T13:50:47;1.00;;;0.88;;
57659;SDS011;43485;45.680;15.702;2024-02-16T13:53:14;1.85;;;1.27;;
57659;SDS011;43485;45.680;15.702;2024-02-16T13:55:41;2.08;;;1.17;;
57659;SDS011;43485;45.680;15.702;2024-02-16T13:58:26;0.60;;;0.60;;
57659;SDS011;43485;45.680;15.702;2024-02-16T14:00:53;0.85;;;0.70;;
57659;SDS011;43485;45.680;15.702;2024-02-16T14:03:19;1.08;;;0.73;;
57659;SDS011;43485;45.680;15.702;2024-02-16T14:05:46;3.20;;;2.15;;
57659;SDS011;43485;45.680;15.702;2024-02-16T14:08:12;1.67;;;1.15;;
57659;SDS011;43485;45.680;15.702;2024-02-16T14:10:40;6.05;;;1.60;;
57659;SDS011;43485;45.680;15.702;2024-02-16T14:13:06;1.05;;;0.95;;
57659;SDS011;43485;45.680;15.702;2024-02-16T14:15:32;1.83;;;1.25;;
57659;SDS011;43485;45.680;15.702;2024-02-16T14:17:58;0.85;;;0.80;;
57659;SDS011;43485;45.680;15.702;2024-02-16T14:20:24;0.95;;;0.85;;
57659;SDS011;43485;45.680;15.702;2024-02-16T14:22:51;3.90;;;2.60;;
57659;SDS011;43485;45.680;15.702;2024-02-16T14:25:17;2.50;;;1.63;;
57659;SDS011;43485;45.680;15.702;2024-02-16T14:27:44;0.98;;;0.70;;
57659;SDS011;43485;45.680;15.702;2024-02-16T14:30:11;2.08;;;1.75;;
57659;SDS011;43485;45.680;15.702;2024-02-16T14:32:37;2.80;;;1.52;;
57659;SDS011;43485;45.680;15.702;2024-02-16T14:35:04;4.05;;;2.15;;
57659;SDS011;43485;45.680;15.702;2024-02-16T14:37:31;3.60;;;1.25;;
57659;SDS011;43485;45.680;15.702;2024-02-16T14:39:58;2.10;;;1.33;;
57659;SDS011;43485;45.680;15.702;2024-02-16T14:42:25;1.92;;;1.35;;
57659;SDS011;43485;45.680;15.702;2024-02-16T14:44:52;4.47;;;2.10;;
57659;SDS011;43485;45.680;15.702;2024-02-16T14:47:18;1.23;;;0.75;;
57659;SDS011;43485;45.680;15.702;2024-02-16T14:49:44;2.42;;;1.70;;
57659;SDS011;43485;45.680;15.702;2024-02-16T14:52:10;2.05;;;1.17;;
57659;SDS011;43485;45.680;15.702;2024-02-16T14:54:36;1.63;;;1.13;;
57659;SDS011;43485;45.680;15.702;2024-02-16T14:57:02;3.20;;;2.42;;
57659;SDS011;43485;45.680;15.702;2024-02-16T14:59:28;3.95;;;2.50;;
57659;SDS011;43485;45.680;15.702;2024-02-16T15:01:55;2.55;;;1.75;;
57659;SDS011;43485;45.680;15.702;2024-02-16T15:04:21;2.97;;;1.67;;
57659;SDS011;43485;45.680;15.702;2024-02-16T15:06:48;2.35;;;1.65;;
57659;SDS011;43485;45.680;15.702;2024-02-16T15:09:14;1.42;;;1.20;;
57659;SDS011;43485;45.680;15.702;2024-02-16T15:11:40;2.78;;;2.00;;
57659;SDS011;43485;45.680;15.702;2024-02-16T15:14:06;1.48;;;1.35;;
57659;SDS011;43485;45.680;15.702;2024-02-16T15:16:32;3.30;;;2.42;;
57659;SDS011;43485;45.680;15.702;2024-02-16T15:18:58;3.17;;;1.58;;
57659;SDS011;43485;45.680;15.702;2024-02-16T15:21:24;2.22;;;1.38;;
57659;SDS011;43485;45.680;15.702;2024-02-16T15:23:52;1.77;;;0.90;;
57659;SDS011;43485;45.680;15.702;2024-02-16T15:26:18;1.17;;;0.93;;
57659;SDS011;43485;45.680;15.702;2024-02-16T15:28:44;3.53;;;1.55;;
57659;SDS011;43485;45.680;15.702;2024-02-16T15:31:11;1.83;;;0.95;;
57659;SDS011;43485;45.680;15.702;2024-02-16T15:33:37;2.78;;;1.30;;
57659;SDS011;43485;45.680;15.702;2024-02-16T15:36:03;3.17;;;1.85;;
57659;SDS011;43485;45.680;15.702;2024-02-16T15:38:29;1.17;;;0.70;;
57659;SDS011;43485;45.680;15.702;2024-02-16T15:40:55;2.85;;;1.95;;
57659;SDS011;43485;45.680;15.702;2024-02-16T15:43:21;3.03;;;2.10;;
57659;SDS011;43485;45.680;15.702;2024-02-16T15:45:47;6.70;;;2.15;;
57659;SDS011;43485;45.680;15.702;2024-02-16T15:48:14;2.75;;;1.67;;
57659;SDS011;43485;45.680;15.702;2024-02-16T15:50:41;4.63;;;1.35;;
57659;SDS011;43485;45.680;15.702;2024-02-16T15:53:07;2.55;;;1.35;;
57659;SDS011;43485;45.680;15.702;2024-02-16T15:55:33;3.45;;;1.25;;
57659;SDS011;43485;45.680;15.702;2024-02-16T15:57:59;2.88;;;1.45;;